Karina — WDE7823 — position and weather

sailwx.info

Track history (hours):
 
Tides and Currents Weather Stations Pressure Air Temp Water Temp Dewpoint Dewpoint Depression Visibility Wind Speed Wind Dir Waves Ship Positions

Karina

Owner: Karina, LLC, Cape May Court House, NJ. More information available from US FCC via Universal Licensing System and Coast Guard Vessel Documentation Center.

Last reported at 2017-Sep-17 05:38 UTC. Time now 2017-Sep-21 05:02 UTC.
Position N 38°57' W 074°53'.

Length 21 m.

Type: Pleasure craft. MMSI: 367398120.

Date/timePositionNaut miles runAvg speedWind from/ knotsBaromVisibWave heightAir tempDewpointWater temp
2017-Sep-17 05:38N 38°57' W 074°53'15 7.1
2017-Sep-17 03:33N 39°02' W 074°35'1 7.9
2017-Sep-17 03:28N 39°02' W 074°34'4 7.7
2017-Sep-17 03:00N 39°03' W 074°30'  
2017-Sep-14 03:53N 39°38' W 074°02'4 7.9
2017-Sep-14 03:19N 39°38' W 074°07'53 3.0
2017-Sep-13 09:31N 38°58' W 074°53'0 0.5
2017-Sep-13 09:30N 38°58' W 074°53'0 0.0
2017-Sep-13 08:59N 38°58' W 074°53'0 0.0
2017-Sep-13 08:29N 38°58' W 074°53'0 0.0
2017-Sep-13 07:56N 38°58' W 074°53'0 0.0
2017-Sep-13 07:28N 38°58' W 074°53'0 0.0
2017-Sep-13 06:50N 38°58' W 074°53'0 0.0
2017-Sep-13 03:58N 38°58' W 074°53'0 0.0
2017-Sep-13 03:26N 38°58' W 074°53'0 0.0
2017-Sep-13 03:00N 38°58' W 074°53'0 0.0
2017-Sep-13 01:58N 38°58' W 074°53'  
Track history (hours):
 
Tides and Currents Weather Stations Pressure Air Temp Water Temp Dewpoint Dewpoint Depression Visibility Wind Speed Wind Dir Waves Ship Positions

Karina

Owner: Karina, LLC, Cape May Court House, NJ. More information available from US FCC via Universal Licensing System and Coast Guard Vessel Documentation Center.

Last reported at 2017-Sep-17 05:38 UTC. Time now 2017-Sep-21 05:02 UTC.
Position N 38°57' W 074°53'.

Length 21 m.

Type: Pleasure craft. MMSI: 367398120.

Date/timePositionNaut miles runAvg speedWind from/ knotsBaromVisibWave heightAir tempDewpointWater temp
2017-Sep-17 05:38N 38°57' W 074°53'15 7.1
2017-Sep-17 03:33N 39°02' W 074°35'1 7.9
2017-Sep-17 03:28N 39°02' W 074°34'4 7.7
2017-Sep-17 03:00N 39°03' W 074°30'  
2017-Sep-14 03:53N 39°38' W 074°02'4 7.9
2017-Sep-14 03:19N 39°38' W 074°07'53 3.0
2017-Sep-13 09:31N 38°58' W 074°53'0 0.5
2017-Sep-13 09:30N 38°58' W 074°53'0 0.0
2017-Sep-13 08:59N 38°58' W 074°53'0 0.0
2017-Sep-13 08:29N 38°58' W 074°53'0 0.0
2017-Sep-13 07:56N 38°58' W 074°53'0 0.0
2017-Sep-13 07:28N 38°58' W 074°53'0 0.0
2017-Sep-13 06:50N 38°58' W 074°53'0 0.0
2017-Sep-13 03:58N 38°58' W 074°53'0 0.0
2017-Sep-13 03:26N 38°58' W 074°53'0 0.0
2017-Sep-13 03:00N 38°58' W 074°53'0 0.0
2017-Sep-13 01:58N 38°58' W 074°53'  

Dump ship's entire track history